createdAt,value
2019-01-03T00:01:17.573Z,-0.60
2019-01-03T00:03:59.487Z,-0.50
2019-01-03T00:06:45.557Z,-0.50
2019-01-03T00:09:21.567Z,-0.50
2019-01-03T00:12:07.666Z,-0.50
2019-01-03T00:14:46.731Z,-0.50
2019-01-03T00:17:19.476Z,-0.50
2019-01-03T00:20:05.909Z,-0.40
2019-01-03T00:22:38.953Z,-0.40
2019-01-03T00:25:25.053Z,-0.30
2019-01-03T00:28:07.212Z,-0.40
2019-01-03T00:30:42.958Z,-0.40
2019-01-03T00:33:15.743Z,-0.40
2019-01-03T00:35:54.523Z,-0.40
2019-01-03T00:38:36.630Z,-0.30
2019-01-03T00:41:06.759Z,-0.30
2019-01-03T00:43:42.794Z,-0.30
2019-01-03T00:46:15.775Z,-0.30
2019-01-03T00:49:01.666Z,-0.30
2019-01-03T00:51:34.160Z,-0.40
2019-01-03T00:54:20.250Z,-0.40
2019-01-03T00:57:06.092Z,-0.40
2019-01-03T00:59:52.890Z,-0.40
2019-01-03T01:02:28.650Z,-0.50
2019-01-03T01:04:58.738Z,-0.60
2019-01-03T01:07:40.824Z,-0.60
2019-01-03T01:10:10.958Z,-0.60
2019-01-03T01:12:46.861Z,-0.70
2019-01-03T01:15:19.712Z,-0.70
2019-01-03T01:17:55.839Z,-0.70
2019-01-03T01:20:25.973Z,-0.80
2019-01-03T01:22:58.779Z,-0.80
2019-01-03T01:25:28.873Z,-0.80
2019-01-03T01:28:13.778Z,-0.90
2019-01-03T01:30:43.888Z,-0.90
2019-01-03T01:33:25.761Z,-0.90
2019-01-03T01:36:13.695Z,-1.00
2019-01-03T01:38:58.794Z,-1.00
2019-01-03T01:41:37.937Z,-1.00
2019-01-03T01:44:08.016Z,-1.00
2019-01-03T01:46:43.767Z,-1.00
2019-01-03T01:49:13.837Z,-0.90
2019-01-03T01:51:49.782Z,-1.00
2019-01-03T01:54:28.948Z,-1.00
2019-01-03T01:57:10.785Z,-1.00
2019-01-03T01:59:46.772Z,-1.00
2019-01-03T02:02:22.802Z,-1.00
2019-01-03T02:04:55.797Z,-1.10
2019-01-03T02:07:28.596Z,-1.00
2019-01-03T02:10:13.415Z,-1.00
2019-01-03T02:13:01.615Z,-1.00
2019-01-03T02:15:43.477Z,-1.00
2019-01-03T02:18:16.190Z,-0.90
2019-01-03T02:21:02.560Z,-0.90
2019-01-03T02:23:50.720Z,-0.90
2019-01-03T02:26:29.933Z,-0.90
2019-01-03T02:29:02.830Z,-0.80
2019-01-03T02:31:32.942Z,-0.90
2019-01-03T02:34:03.027Z,-0.80
2019-01-03T02:36:49.446Z,-0.90
2019-01-03T02:39:35.490Z,-0.90
2019-01-03T02:42:08.543Z,-0.90
2019-01-03T02:44:53.404Z,-0.90
2019-01-03T02:47:23.494Z,-0.90
2019-01-03T02:49:59.239Z,-1.00
2019-01-03T02:52:35.091Z,-1.00
2019-01-03T02:55:10.929Z,-0.90
2019-01-03T02:57:57.043Z,-0.90
2019-01-03T03:00:27.122Z,-0.90
2019-01-03T03:02:57.229Z,-0.90
2019-01-03T03:05:45.432Z,-0.90
2019-01-03T03:08:15.538Z,-0.90
2019-01-03T03:10:51.286Z,-0.90
2019-01-03T03:13:27.054Z,-0.90
2019-01-03T03:16:08.898Z,-0.90
2019-01-03T03:18:39.022Z,-0.80
2019-01-03T03:21:09.082Z,-0.70
2019-01-03T03:23:57.337Z,-0.70
2019-01-03T03:26:27.420Z,-0.70
2019-01-03T03:28:57.519Z,-0.80
2019-01-03T03:31:44.049Z,-0.80
2019-01-03T03:34:23.178Z,-0.70
2019-01-03T03:36:59.330Z,-0.70
2019-01-03T03:39:45.515Z,-0.70
2019-01-03T03:42:18.811Z,-0.70
2019-01-03T03:44:48.899Z,-0.70
2019-01-03T03:47:18.968Z,-0.70
2019-01-03T03:50:05.302Z,-0.70
2019-01-03T03:52:51.826Z,-0.80
2019-01-03T03:55:21.942Z,-0.80
2019-01-03T03:58:08.257Z,-0.80
2019-01-03T04:00:44.411Z,-0.80
2019-01-03T04:03:17.557Z,-0.80
2019-01-03T04:05:56.458Z,-0.80
2019-01-03T04:08:29.490Z,-0.80
2019-01-03T04:11:08.459Z,-0.80
2019-01-03T04:13:38.541Z,-0.80
2019-01-03T04:16:14.260Z,-0.80
2019-01-03T04:19:02.254Z,-0.70
2019-01-03T04:21:32.426Z,-0.70
2019-01-03T04:24:05.230Z,-0.70
2019-01-03T04:26:51.640Z,-0.70
2019-01-03T04:29:21.706Z,-0.70
2019-01-03T04:32:00.330Z,-0.70
2019-01-03T04:34:30.400Z,-0.70
2019-01-03T04:37:03.186Z,-0.70
2019-01-03T04:39:33.264Z,-0.60
2019-01-03T04:42:18.150Z,-0.50
2019-01-03T04:44:48.253Z,-0.60
2019-01-03T04:47:34.690Z,-0.60
2019-01-03T04:50:04.783Z,-0.60
2019-01-03T04:52:49.971Z,-0.60
2019-01-03T04:55:22.770Z,-0.60
2019-01-03T04:57:52.873Z,-0.50
2019-01-03T05:00:25.885Z,-0.50
2019-01-03T05:02:58.640Z,-0.40
2019-01-03T05:05:31.771Z,-0.40
2019-01-03T05:08:10.706Z,-0.40
2019-01-03T05:10:46.587Z,-0.30
2019-01-03T05:13:33.047Z,-0.30
2019-01-03T05:16:18.185Z,-0.30
2019-01-03T05:18:56.975Z,-0.30
2019-01-03T05:21:42.088Z,-0.30
2019-01-03T05:24:12.167Z,-0.30
2019-01-03T05:26:58.478Z,-0.30
2019-01-03T05:29:37.497Z,-0.30
2019-01-03T05:32:07.607Z,-0.30
2019-01-03T05:34:53.883Z,-0.30
2019-01-03T05:37:26.882Z,-0.30
2019-01-03T05:40:12.016Z,-0.30
2019-01-03T05:42:58.341Z,-0.20
2019-01-03T05:45:31.100Z,-0.20
2019-01-03T05:48:01.189Z,-0.20
2019-01-03T05:50:37.324Z,-0.20
2019-01-03T05:53:16.601Z,-0.20
2019-01-03T05:55:49.322Z,-0.20
2019-01-03T05:58:19.429Z,-0.20
2019-01-03T06:01:01.526Z,-0.10
2019-01-03T06:03:47.952Z,0.00
2019-01-03T06:06:33.711Z,0.10
2019-01-03T06:09:03.814Z,0.10
2019-01-03T06:11:33.901Z,0.20
2019-01-03T06:14:09.890Z,0.30
2019-01-03T06:16:39.975Z,0.40
2019-01-03T06:19:25.151Z,0.40
2019-01-03T06:21:57.918Z,0.40
2019-01-03T06:24:43.981Z,0.50
2019-01-03T06:27:30.445Z,0.50
2019-01-03T06:30:03.479Z,0.60
2019-01-03T06:32:49.562Z,0.60
2019-01-03T06:35:22.666Z,0.70
2019-01-03T06:37:52.739Z,0.70
2019-01-03T06:40:28.754Z,0.70
2019-01-03T06:42:58.847Z,0.70
2019-01-03T06:45:31.473Z,0.80
2019-01-03T06:48:04.207Z,0.80
2019-01-03T06:50:34.296Z,0.80
2019-01-03T06:53:10.352Z,0.80
2019-01-03T06:55:46.273Z,0.80
2019-01-03T06:58:22.175Z,0.70
2019-01-03T07:00:52.266Z,0.60
2019-01-03T07:03:38.610Z,0.70
2019-01-03T07:06:24.953Z,0.70
2019-01-03T07:09:12.081Z,0.70
2019-01-03T07:11:58.242Z,0.70
2019-01-03T07:14:36.950Z,0.70
2019-01-03T07:17:22.129Z,0.70
2019-01-03T07:20:07.030Z,0.70
2019-01-03T07:22:51.731Z,0.70
2019-01-03T07:25:27.549Z,0.70
2019-01-03T07:28:06.358Z,0.80
2019-01-03T07:30:39.088Z,0.70
2019-01-03T07:33:27.082Z,0.70
2019-01-03T07:35:57.166Z,0.80
2019-01-03T07:38:30.185Z,0.80
2019-01-03T07:41:00.287Z,0.80
2019-01-03T07:43:45.223Z,0.80
2019-01-03T07:46:33.313Z,0.80
2019-01-03T07:49:03.382Z,0.80
2019-01-03T07:51:48.279Z,0.90
2019-01-03T07:54:34.414Z,0.90
2019-01-03T07:57:16.306Z,0.90
2019-01-03T07:59:58.090Z,1.00
2019-01-03T08:02:31.123Z,0.90
2019-01-03T08:05:17.458Z,0.90
2019-01-03T08:07:59.504Z,1.00
2019-01-03T08:10:32.238Z,1.00
2019-01-03T08:13:08.070Z,0.90
2019-01-03T08:15:54.470Z,0.90
2019-01-03T08:18:24.567Z,0.90
2019-01-03T08:21:06.434Z,0.90
2019-01-03T08:23:36.535Z,0.80
2019-01-03T08:26:24.474Z,0.80
2019-01-03T08:29:09.572Z,0.80
2019-01-03T08:31:45.199Z,0.90
2019-01-03T08:34:24.132Z,0.80
2019-01-03T08:36:54.273Z,0.90
2019-01-03T08:39:30.300Z,0.90
2019-01-03T08:42:12.441Z,0.90
2019-01-03T08:44:58.673Z,0.90
2019-01-03T08:47:31.486Z,0.90
2019-01-03T08:50:01.589Z,0.90
2019-01-03T08:52:43.563Z,1.00
2019-01-03T08:55:16.611Z,1.10
2019-01-03T08:58:04.487Z,1.10
2019-01-03T09:00:37.226Z,1.20
2019-01-03T09:03:12.988Z,1.30
2019-01-03T09:05:48.810Z,1.40
2019-01-03T09:08:19.011Z,1.40
2019-01-03T09:10:58.078Z,1.40
2019-01-03T09:13:44.422Z,1.50
2019-01-03T09:16:14.493Z,1.50
2019-01-03T09:18:53.398Z,1.60
2019-01-03T09:21:23.492Z,1.50
2019-01-03T09:23:53.575Z,1.60
2019-01-03T09:26:23.652Z,1.70
2019-01-03T09:28:59.147Z,1.80
2019-01-03T09:31:44.115Z,1.70
2019-01-03T09:34:31.951Z,1.80
2019-01-03T09:37:10.857Z,1.80
2019-01-03T09:39:57.072Z,1.80
2019-01-03T09:42:27.145Z,1.80
2019-01-03T09:44:55.667Z,1.80
2019-01-03T09:47:24.131Z,1.80
2019-01-03T09:49:53.423Z,1.80
2019-01-03T09:52:21.990Z,1.80
2019-01-03T09:54:50.437Z,1.80
2019-01-03T09:57:18.906Z,1.80
2019-01-03T09:59:47.339Z,1.80
2019-01-03T10:02:15.793Z,1.80
2019-01-03T10:04:44.242Z,1.70
2019-01-03T10:07:12.708Z,1.70
2019-01-03T10:09:41.135Z,1.70
2019-01-03T10:12:09.617Z,1.70
2019-01-03T10:14:38.050Z,1.70
2019-01-03T10:17:06.509Z,1.70
2019-01-03T10:19:34.941Z,1.60
2019-01-03T10:22:03.406Z,1.60
2019-01-03T10:24:31.865Z,1.70
2019-01-03T10:27:00.319Z,1.70
2019-01-03T10:29:28.748Z,1.80
2019-01-03T10:31:57.267Z,1.80
2019-01-03T10:34:25.695Z,1.90
2019-01-03T10:36:54.148Z,1.80
2019-01-03T10:39:22.596Z,1.80
2019-01-03T10:41:51.041Z,1.80
2019-01-03T10:44:19.475Z,1.90
2019-01-03T10:46:47.952Z,1.90
2019-01-03T10:49:16.399Z,1.80
2019-01-03T10:51:44.834Z,1.80
2019-01-03T10:54:13.283Z,1.80
2019-01-03T10:56:41.724Z,1.90
2019-01-03T10:59:10.179Z,1.90
2019-01-03T11:01:38.626Z,1.70
2019-01-03T11:04:07.081Z,1.70
2019-01-03T11:06:35.567Z,1.60
2019-01-03T11:09:06.059Z,1.60
2019-01-03T11:11:34.510Z,1.60
2019-01-03T11:14:02.971Z,1.60
2019-01-03T11:16:31.419Z,1.80
2019-01-03T11:18:59.876Z,1.90
2019-01-03T11:21:28.331Z,2.00
2019-01-03T11:23:56.790Z,2.10
2019-01-03T11:26:25.292Z,2.20
2019-01-03T11:28:53.746Z,2.20
2019-01-03T11:31:22.179Z,2.20
2019-01-03T11:33:50.637Z,2.10
2019-01-03T11:36:19.097Z,2.20
2019-01-03T11:38:47.600Z,2.30
2019-01-03T11:41:16.037Z,2.40
2019-01-03T11:43:44.498Z,2.40
2019-01-03T11:46:12.925Z,2.40
2019-01-03T11:48:41.376Z,2.50
2019-01-03T11:51:09.814Z,2.60
2019-01-03T11:53:38.303Z,2.60
2019-01-03T11:56:06.728Z,2.50
2019-01-03T11:58:35.150Z,2.50
2019-01-03T12:01:03.598Z,2.50
2019-01-03T12:03:32.033Z,2.60
2019-01-03T12:06:00.482Z,2.60
2019-01-03T12:08:28.941Z,2.60
2019-01-03T12:10:57.407Z,2.60
2019-01-03T12:13:25.849Z,2.70
2019-01-03T12:15:58.050Z,2.70
2019-01-03T12:18:26.531Z,2.80
2019-01-03T12:20:55.078Z,2.70
2019-01-03T12:23:23.510Z,2.70
2019-01-03T12:25:51.958Z,2.90
2019-01-03T12:28:20.389Z,3.00
2019-01-03T12:30:48.941Z,3.00
2019-01-03T12:33:17.424Z,2.90
2019-01-03T12:35:45.884Z,3.00
2019-01-03T12:38:14.355Z,3.00
2019-01-03T12:40:42.834Z,3.00
2019-01-03T12:43:11.256Z,3.00
2019-01-03T12:45:39.710Z,3.00
2019-01-03T12:48:08.145Z,3.00
2019-01-03T12:50:36.600Z,3.00
2019-01-03T12:53:05.034Z,3.00
2019-01-03T12:55:33.491Z,3.00
2019-01-03T12:58:01.939Z,3.00
2019-01-03T13:00:30.411Z,3.00
2019-01-03T13:02:58.886Z,3.00
2019-01-03T13:05:27.374Z,2.90
2019-01-03T13:07:55.794Z,2.90
2019-01-03T13:10:24.245Z,2.90
2019-01-03T13:12:52.678Z,3.00
2019-01-03T13:15:21.110Z,3.00
2019-01-03T13:17:49.566Z,3.00
2019-01-03T13:20:17.995Z,3.00
2019-01-03T13:22:46.454Z,3.00
2019-01-03T13:25:14.886Z,2.90
2019-01-03T13:27:43.380Z,2.90
2019-01-03T13:30:11.894Z,2.90
2019-01-03T13:32:40.342Z,3.00
2019-01-03T13:35:08.797Z,3.00
2019-01-03T13:37:37.242Z,3.00
2019-01-03T13:40:06.719Z,3.00
2019-01-03T13:42:35.164Z,3.00
2019-01-03T13:45:03.711Z,3.00
2019-01-03T13:47:32.218Z,3.00
2019-01-03T13:50:00.707Z,2.90
2019-01-03T13:52:29.180Z,2.90
2019-01-03T13:54:57.623Z,2.90
2019-01-03T13:57:26.078Z,2.90
2019-01-03T13:59:54.596Z,2.90
2019-01-03T14:02:23.178Z,2.90
2019-01-03T14:04:52.532Z,2.90
2019-01-03T14:07:20.994Z,2.90
2019-01-03T14:09:49.414Z,2.80
2019-01-03T14:12:17.859Z,2.80
2019-01-03T14:14:46.302Z,2.80
2019-01-03T14:17:14.752Z,2.80
2019-01-03T14:19:43.266Z,2.80
2019-01-03T14:22:11.698Z,2.80
2019-01-03T14:24:40.153Z,2.70
2019-01-03T14:27:08.600Z,2.70
2019-01-03T14:29:37.132Z,2.60
2019-01-03T14:32:05.570Z,2.60
2019-01-03T14:34:34.018Z,2.50
2019-01-03T14:37:02.453Z,2.40
2019-01-03T14:39:30.902Z,2.40
2019-01-03T14:41:59.334Z,2.40
2019-01-03T14:44:27.779Z,2.30
2019-01-03T14:46:56.225Z,2.20
2019-01-03T14:49:24.675Z,2.20
2019-01-03T14:51:53.119Z,2.10
2019-01-03T14:54:21.573Z,2.10
2019-01-03T14:56:50.040Z,2.10
2019-01-03T14:59:18.482Z,2.00
2019-01-03T15:01:46.922Z,2.00
2019-01-03T15:04:15.367Z,1.90
2019-01-03T15:06:43.802Z,1.70
2019-01-03T15:09:12.273Z,1.60
2019-01-03T15:11:40.717Z,1.50
2019-01-03T15:14:09.172Z,1.40
2019-01-03T15:16:37.616Z,1.30
2019-01-03T15:19:06.069Z,1.30
2019-01-03T15:21:34.528Z,1.30
2019-01-03T15:24:02.978Z,1.30
2019-01-03T15:26:31.420Z,1.30
2019-01-03T15:28:59.870Z,1.20
2019-01-03T15:31:28.304Z,1.10
2019-01-03T15:33:56.750Z,1.10
2019-01-03T15:36:25.191Z,1.00
2019-01-03T15:38:53.640Z,1.10
2019-01-03T15:41:22.087Z,1.10
2019-01-03T15:43:50.515Z,1.10
2019-01-03T15:46:18.985Z,1.00
2019-01-03T15:48:47.411Z,1.00
2019-01-03T15:51:15.858Z,1.00
2019-01-03T15:53:44.293Z,1.00
2019-01-03T15:56:12.746Z,1.10
2019-01-03T15:58:41.183Z,1.10
2019-01-03T16:01:09.640Z,1.10
2019-01-03T16:03:38.070Z,1.10
2019-01-03T16:06:06.519Z,1.20
2019-01-03T16:08:34.966Z,1.30
2019-01-03T16:11:03.434Z,1.30
2019-01-03T16:13:31.876Z,1.30
2019-01-03T16:16:00.402Z,1.40
2019-01-03T16:18:28.835Z,1.50
2019-01-03T16:20:57.376Z,1.50
2019-01-03T16:23:25.959Z,1.60
2019-01-03T16:25:54.460Z,1.70
2019-01-03T16:28:22.949Z,1.60
2019-01-03T16:30:51.402Z,1.60
2019-01-03T16:33:19.839Z,1.60
2019-01-03T16:35:49.614Z,1.70
2019-01-03T16:38:18.178Z,1.70
2019-01-03T16:40:46.638Z,1.80
2019-01-03T16:43:15.078Z,1.80
2019-01-03T16:45:43.534Z,1.30
2019-01-03T16:48:11.970Z,1.80
2019-01-03T16:50:40.427Z,1.80
2019-01-03T16:53:08.858Z,1.90
2019-01-03T16:55:37.310Z,1.90
2019-01-03T16:58:05.753Z,1.90
2019-01-03T17:00:34.176Z,1.90
2019-01-03T17:03:02.647Z,1.90
2019-01-03T17:05:31.138Z,1.90
2019-01-03T17:07:59.588Z,1.90
2019-01-03T17:10:28.087Z,1.80
2019-01-03T17:12:56.539Z,1.90
2019-01-03T17:15:24.991Z,1.80
2019-01-03T17:17:53.442Z,1.80
2019-01-03T17:20:21.871Z,1.90
2019-01-03T17:22:50.331Z,1.80
2019-01-03T17:25:18.788Z,1.80
2019-01-03T17:27:47.240Z,1.70
2019-01-03T17:30:15.685Z,1.70
2019-01-03T17:32:44.122Z,1.60
2019-01-03T17:35:12.564Z,1.50
2019-01-03T17:37:41.019Z,1.50
2019-01-03T17:40:11.293Z,1.40
2019-01-03T17:42:40.187Z,1.30
2019-01-03T17:45:10.482Z,1.30
2019-01-03T17:47:38.926Z,1.30
2019-01-03T17:50:11.720Z,1.20
2019-01-03T17:52:40.238Z,1.20
2019-01-03T17:55:08.846Z,1.20
2019-01-03T17:57:37.361Z,1.20
2019-01-03T18:00:14.721Z,1.10
2019-01-03T18:02:43.235Z,1.10
2019-01-03T18:05:11.709Z,1.90
2019-01-03T18:07:40.409Z,1.00
2019-01-03T18:10:11.857Z,1.00
2019-01-03T18:12:40.347Z,1.00
2019-01-03T18:15:09.225Z,0.90
2019-01-03T18:17:37.671Z,0.90
2019-01-03T18:20:09.423Z,0.90
2019-01-03T18:22:37.853Z,0.90
2019-01-03T18:25:06.561Z,0.90
2019-01-03T18:27:35.044Z,0.80
2019-01-03T18:30:04.718Z,0.80
2019-01-03T18:32:33.201Z,0.80
2019-01-03T18:35:01.663Z,0.80
2019-01-03T18:37:30.172Z,0.70
2019-01-03T18:39:58.634Z,0.70
2019-01-03T18:42:27.093Z,0.70
2019-01-03T18:44:55.674Z,0.70
2019-01-03T18:47:24.110Z,0.70
2019-01-03T18:49:52.562Z,0.60
2019-01-03T18:52:21.039Z,0.60
2019-01-03T18:54:49.476Z,0.60
2019-01-03T18:57:17.932Z,0.60
2019-01-03T18:59:46.435Z,0.60
2019-01-03T19:02:14.905Z,0.60
2019-01-03T19:04:43.426Z,0.50
2019-01-03T19:07:11.868Z,0.50
2019-01-03T19:09:40.386Z,0.50
2019-01-03T19:12:08.819Z,0.50
2019-01-03T19:14:37.263Z,0.50
2019-01-03T19:17:05.692Z,0.50
2019-01-03T19:19:34.152Z,0.40
2019-01-03T19:22:02.741Z,0.40
2019-01-03T19:24:31.193Z,0.40
2019-01-03T19:26:59.642Z,0.30
2019-01-03T19:29:28.102Z,0.30
2019-01-03T19:31:56.550Z,0.30
2019-01-03T19:34:24.998Z,0.30
2019-01-03T19:36:53.427Z,0.30
2019-01-03T19:39:21.882Z,0.30
2019-01-03T19:41:50.326Z,0.30
2019-01-03T19:44:18.755Z,0.20
2019-01-03T19:46:47.211Z,0.20
2019-01-03T19:49:15.652Z,0.20
2019-01-03T19:51:44.166Z,0.10
2019-01-03T19:54:12.593Z,0.10
2019-01-03T19:56:41.054Z,0.10
2019-01-03T19:59:09.510Z,0.00
2019-01-03T20:01:37.959Z,0.00
2019-01-03T20:04:06.393Z,0.00
2019-01-03T20:06:34.835Z,0.00
2019-01-03T20:09:03.339Z,0.00
2019-01-03T20:11:31.806Z,0.00
2019-01-03T20:14:00.259Z,-0.10
2019-01-03T20:16:28.721Z,-0.10
2019-01-03T20:18:57.161Z,-0.10
2019-01-03T20:21:25.611Z,-0.10
2019-01-03T20:23:54.071Z,-0.10
2019-01-03T20:26:22.518Z,-0.10
2019-01-03T20:28:50.965Z,-0.10
2019-01-03T20:31:19.427Z,-0.10
2019-01-03T20:33:47.877Z,-0.10
2019-01-03T20:36:16.415Z,-0.20
2019-01-03T20:38:44.931Z,-0.20
2019-01-03T20:41:13.533Z,-0.20
2019-01-03T20:43:42.021Z,-0.10
2019-01-03T20:46:10.487Z,-0.20
2019-01-03T20:48:38.931Z,-0.20
2019-01-03T20:51:07.358Z,-0.20
2019-01-03T20:53:35.818Z,-0.20
2019-01-03T20:56:04.250Z,-0.20
2019-01-03T20:58:32.728Z,-0.10
2019-01-03T21:01:01.150Z,-0.20
2019-01-03T21:03:29.609Z,-0.20
2019-01-03T21:05:58.047Z,-0.20
2019-01-03T21:08:26.496Z,-0.20
2019-01-03T21:10:54.942Z,-0.20
2019-01-03T21:13:23.398Z,-0.20
2019-01-03T21:15:51.846Z,-0.20
2019-01-03T21:18:20.306Z,-0.20
2019-01-03T21:20:48.746Z,-0.20
2019-01-03T21:23:17.274Z,-0.20
2019-01-03T21:25:45.711Z,-0.30
2019-01-03T21:28:14.163Z,-0.30
2019-01-03T21:30:42.602Z,-0.30
2019-01-03T21:33:11.066Z,-0.30
2019-01-03T21:35:39.502Z,-0.30
2019-01-03T21:38:07.972Z,-0.30
2019-01-03T21:40:36.473Z,-0.40
2019-01-03T21:43:04.941Z,-0.40
2019-01-03T21:45:33.410Z,-0.40
2019-01-03T21:48:01.856Z,-0.50
2019-01-03T21:50:30.310Z,-0.50
2019-01-03T21:52:58.778Z,-0.50
2019-01-03T21:55:27.215Z,-0.50
2019-01-03T21:57:55.706Z,-0.50
2019-01-03T22:00:24.221Z,-0.40
2019-01-03T22:02:52.747Z,-0.40
2019-01-03T22:05:21.188Z,-0.40
2019-01-03T22:07:49.631Z,-0.50
2019-01-03T22:10:18.090Z,-0.50
2019-01-03T22:12:46.560Z,-0.60
2019-01-03T22:15:15.061Z,-0.60
2019-01-03T22:17:43.528Z,-0.70
2019-01-03T22:20:11.973Z,-0.70
2019-01-03T22:22:40.419Z,-0.80
2019-01-03T22:25:08.894Z,-0.80
2019-01-03T22:27:37.329Z,-0.90
2019-01-03T22:30:08.742Z,-0.90
2019-01-03T22:32:37.176Z,-0.90
2019-01-03T22:35:06.770Z,-1.00
2019-01-03T22:37:35.193Z,-0.90
2019-01-03T22:40:04.497Z,-1.00
2019-01-03T22:42:32.993Z,-1.00
2019-01-03T22:45:01.495Z,-1.00
2019-01-03T22:47:29.926Z,-0.90
2019-01-03T22:49:58.387Z,-0.80
2019-01-03T22:52:26.854Z,-0.70
2019-01-03T22:54:55.356Z,-0.70
2019-01-03T22:57:23.798Z,-0.70
2019-01-03T22:59:52.345Z,-0.70
2019-01-03T23:02:20.775Z,-0.60
2019-01-03T23:04:49.606Z,-0.40
2019-01-03T23:07:18.085Z,-0.30
2019-01-03T23:09:46.592Z,-0.20
2019-01-03T23:12:15.049Z,-0.10
2019-01-03T23:14:43.491Z,0.00
2019-01-03T23:17:11.990Z,-0.10
2019-01-03T23:19:40.422Z,-0.10
2019-01-03T23:22:08.876Z,-0.10
2019-01-03T23:24:37.350Z,0.00
2019-01-03T23:27:05.872Z,0.10
2019-01-03T23:29:35.547Z,0.20
2019-01-03T23:32:04.132Z,0.20
2019-01-03T23:34:39.776Z,0.20
2019-01-03T23:37:08.260Z,0.20
2019-01-03T23:39:36.695Z,0.30
2019-01-03T23:42:05.163Z,0.20
2019-01-03T23:44:33.598Z,0.20
2019-01-03T23:47:02.041Z,0.30
2019-01-03T23:49:30.551Z,0.40
2019-01-03T23:51:59.008Z,0.50
2019-01-03T23:54:27.450Z,0.60
2019-01-03T23:56:55.923Z,0.50
2019-01-03T23:59:24.351Z,0.50
